sensor_id;sensor_type;location;lat;lon;timestamp;pressure;altitude;pressure_sealevel;temperature;humidity
32243;BME280;18731;42.830;24.390;2023-04-03T03:02:35;93943.94;;;4.58;75.70
32243;BME280;18731;42.830;24.390;2023-04-03T03:05:01;93946.38;;;4.45;75.98
32243;BME280;18731;42.830;24.390;2023-04-03T03:07:27;93952.25;;;4.42;75.86
32243;BME280;18731;42.830;24.390;2023-04-03T03:09:52;93949.31;;;4.44;75.85
32243;BME280;18731;42.830;24.390;2023-04-03T03:12:18;93946.00;;;4.38;76.49
32243;BME280;18731;42.830;24.390;2023-04-03T03:14:48;93942.53;;;4.29;76.71
32243;BME280;18731;42.830;24.390;2023-04-03T03:17:13;93914.94;;;4.13;76.47
32243;BME280;18731;42.830;24.390;2023-04-03T03:19:39;93938.94;;;4.25;76.86
32243;BME280;18731;42.830;24.390;2023-04-03T03:22:05;93939.91;;;4.29;77.03
32243;BME280;18731;42.830;24.390;2023-04-03T03:24:30;93947.22;;;4.32;76.70
32243;BME280;18731;42.830;24.390;2023-04-03T03:26:56;93936.00;;;4.27;75.74
32243;BME280;18731;42.830;24.390;2023-04-03T03:29:21;93927.72;;;4.19;76.79
32243;BME280;18731;42.830;24.390;2023-04-03T03:31:47;93936.13;;;4.22;76.42
32243;BME280;18731;42.830;24.390;2023-04-03T03:34:13;93935.22;;;4.26;76.58
32243;BME280;18731;42.830;24.390;2023-04-03T03:36:39;93933.84;;;4.29;76.55
32243;BME280;18731;42.830;24.390;2023-04-03T03:39:04;93928.84;;;4.27;76.00
32243;BME280;18731;42.830;24.390;2023-04-03T03:41:30;93928.06;;;4.27;76.03
32243;BME280;18731;42.830;24.390;2023-04-03T03:43:56;93930.22;;;4.25;76.08
32243;BME280;18731;42.830;24.390;2023-04-03T03:46:22;93876.53;;;3.84;75.98
32243;BME280;18731;42.830;24.390;2023-04-03T03:48:48;93917.31;;;4.23;75.80
32243;BME280;18731;42.830;24.390;2023-04-03T03:51:13;93930.22;;;4.25;76.03
32243;BME280;18731;42.830;24.390;2023-04-03T03:53:39;93928.25;;;4.30;75.51
32243;BME280;18731;42.830;24.390;2023-04-03T03:56:05;93928.50;;;4.20;75.63
32243;BME280;18731;42.830;24.390;2023-04-03T03:58:31;93931.50;;;4.05;75.95
32243;BME280;18731;42.830;24.390;2023-04-03T04:01:01;93913.72;;;3.97;76.50
32243;BME280;18731;42.830;24.390;2023-04-03T04:03:27;93932.81;;;4.16;76.47
32243;BME280;18731;42.830;24.390;2023-04-03T04:05:53;93930.66;;;4.18;76.14
32243;BME280;18731;42.830;24.390;2023-04-03T04:08:19;93922.31;;;4.25;75.71
32243;BME280;18731;42.830;24.390;2023-04-03T04:10:44;93925.06;;;4.19;75.47
32243;BME280;18731;42.830;24.390;2023-04-03T04:13:10;93934.72;;;4.24;75.25
32243;BME280;18731;42.830;24.390;2023-04-03T04:15:36;93930.19;;;4.16;75.62
32243;BME280;18731;42.830;24.390;2023-04-03T04:18:01;93911.75;;;4.02;76.25
32243;BME280;18731;42.830;24.390;2023-04-03T04:20:27;93927.53;;;4.16;76.19
32243;BME280;18731;42.830;24.390;2023-04-03T04:22:53;93942.53;;;4.29;75.92
32243;BME280;18731;42.830;24.390;2023-04-03T04:25:18;93949.56;;;4.34;76.00
32243;BME280;18731;42.830;24.390;2023-04-03T04:27:44;93951.91;;;4.35;76.58
32243;BME280;18731;42.830;24.390;2023-04-03T04:30:10;93957.78;;;4.32;77.38
32243;BME280;18731;42.830;24.390;2023-04-03T04:32:36;93959.66;;;4.32;77.60
32243;BME280;18731;42.830;24.390;2023-04-03T04:35:02;93956.88;;;4.37;77.58
32243;BME280;18731;42.830;24.390;2023-04-03T04:37:29;93958.75;;;4.36;77.33
32243;BME280;18731;42.830;24.390;2023-04-03T04:39:55;93949.31;;;4.44;77.57
32243;BME280;18731;42.830;24.390;2023-04-03T04:42:21;93956.34;;;4.48;77.72
32243;BME280;18731;42.830;24.390;2023-04-03T04:44:47;93951.28;;;4.38;77.33
32243;BME280;18731;42.830;24.390;2023-04-03T04:47:13;93938.91;;;4.47;77.26
32243;BME280;18731;42.830;24.390;2023-04-03T04:49:38;93948.19;;;4.67;77.29
32243;BME280;18731;42.830;24.390;2023-04-03T04:52:04;93950.88;;;4.76;77.87
32243;BME280;18731;42.830;24.390;2023-04-03T04:54:30;93955.28;;;4.89;77.62
32243;BME280;18731;42.830;24.390;2023-04-03T04:56:56;93961.38;;;4.90;77.90
32243;BME280;18731;42.830;24.390;2023-04-03T04:59:21;93964.66;;;4.95;78.29
32243;BME280;18731;42.830;24.390;2023-04-03T05:01:47;93960.66;;;5.06;78.81
32243;BME280;18731;42.830;24.390;2023-04-03T05:04:12;93969.75;;;5.23;78.13
32243;BME280;18731;42.830;24.390;2023-04-03T05:06:38;93965.91;;;5.29;78.20
32243;BME280;18731;42.830;24.390;2023-04-03T05:09:04;93951.09;;;5.28;78.62
32243;BME280;18731;42.830;24.390;2023-04-03T05:11:30;93970.63;;;5.49;78.57
32243;BME280;18731;42.830;24.390;2023-04-03T05:13:56;93971.59;;;5.70;77.75
32243;BME280;18731;42.830;24.390;2023-04-03T05:16:21;93974.59;;;5.95;77.64
32243;BME280;18731;42.830;24.390;2023-04-03T05:18:47;93974.31;;;6.13;76.97
32243;BME280;18731;42.830;24.390;2023-04-03T05:21:13;93964.78;;;6.30;76.32
32243;BME280;18731;42.830;24.390;2023-04-03T05:23:38;93967.41;;;6.56;76.28
32243;BME280;18731;42.830;24.390;2023-04-03T05:26:04;93975.00;;;6.74;75.73
32243;BME280;18731;42.830;24.390;2023-04-03T05:28:30;93961.72;;;6.83;75.47
32243;BME280;18731;42.830;24.390;2023-04-03T05:30:57;93971.81;;;6.98;74.90
32243;BME280;18731;42.830;24.390;2023-04-03T05:33:24;93966.19;;;7.00;74.34
32243;BME280;18731;42.830;24.390;2023-04-03T05:35:52;93968.00;;;7.17;73.97
32243;BME280;18731;42.830;24.390;2023-04-03T05:38:18;93964.66;;;7.37;73.89
32243;BME280;18731;42.830;24.390;2023-04-03T05:40:44;93970.50;;;7.51;73.40
32243;BME280;18731;42.830;24.390;2023-04-03T05:43:09;93962.63;;;7.63;73.15
32243;BME280;18731;42.830;24.390;2023-04-03T05:45:35;93959.16;;;7.71;72.76
32243;BME280;18731;42.830;24.390;2023-04-03T05:48:01;93952.38;;;7.83;71.68
32243;BME280;18731;42.830;24.390;2023-04-03T05:50:27;93957.13;;;7.98;71.35
32243;BME280;18731;42.830;24.390;2023-04-03T05:52:56;93956.41;;;8.10;71.22
32243;BME280;18731;42.830;24.390;2023-04-03T05:55:22;93951.03;;;8.18;71.34
32243;BME280;18731;42.830;24.390;2023-04-03T05:57:48;93935.53;;;8.20;71.64
32243;BME280;18731;42.830;24.390;2023-04-03T06:00:14;93947.84;;;8.46;71.12
32243;BME280;18731;42.830;24.390;2023-04-03T06:02:43;93944.69;;;8.64;70.53
32243;BME280;18731;42.830;24.390;2023-04-03T06:05:09;93946.94;;;8.75;68.26
32243;BME280;18731;42.830;24.390;2023-04-03T06:07:37;93958.97;;;8.93;66.50
32243;BME280;18731;42.830;24.390;2023-04-03T06:10:03;93947.41;;;8.89;66.16
32243;BME280;18731;42.830;24.390;2023-04-03T06:12:29;93946.44;;;9.06;66.32
32243;BME280;18731;42.830;24.390;2023-04-03T06:14:55;93953.97;;;9.03;65.64
32243;BME280;18731;42.830;24.390;2023-04-03T06:17:21;93951.72;;;8.81;66.57
32243;BME280;18731;42.830;24.390;2023-04-03T06:19:47;93941.50;;;8.71;66.06
32243;BME280;18731;42.830;24.390;2023-04-03T06:22:13;93939.59;;;8.59;66.74
32243;BME280;18731;42.830;24.390;2023-04-03T06:24:39;93919.69;;;8.45;66.81
32243;BME280;18731;42.830;24.390;2023-04-03T06:27:05;93937.25;;;8.58;66.79
32243;BME280;18731;42.830;24.390;2023-04-03T06:29:31;93938.94;;;8.62;66.40
32243;BME280;18731;42.830;24.390;2023-04-03T06:31:57;93938.63;;;8.76;66.56
32243;BME280;18731;42.830;24.390;2023-04-03T06:34:22;93949.75;;;8.90;67.45
32243;BME280;18731;42.830;24.390;2023-04-03T06:36:48;93936.69;;;9.10;65.83
32243;BME280;18731;42.830;24.390;2023-04-03T06:39:19;93947.56;;;9.17;64.61
32243;BME280;18731;42.830;24.390;2023-04-03T06:41:51;93930.94;;;9.20;64.10
32243;BME280;18731;42.830;24.390;2023-04-03T06:44:16;93941.34;;;9.13;64.15
32243;BME280;18731;42.830;24.390;2023-04-03T06:46:43;93947.13;;;9.27;64.44
32243;BME280;18731;42.830;24.390;2023-04-03T06:49:09;93957.34;;;9.49;63.68
32243;BME280;18731;42.830;24.390;2023-04-03T06:51:36;93948.47;;;9.70;61.99
32243;BME280;18731;42.830;24.390;2023-04-03T06:54:03;93941.78;;;9.76;61.78
32243;BME280;18731;42.830;24.390;2023-04-03T06:56:29;93956.19;;;9.99;61.99
32243;BME280;18731;42.830;24.390;2023-04-03T06:58:55;93950.59;;;10.16;61.83
32243;BME280;18731;42.830;24.390;2023-04-03T07:01:24;93950.38;;;10.21;60.20
32243;BME280;18731;42.830;24.390;2023-04-03T07:03:51;93959.47;;;10.32;59.90
32243;BME280;18731;42.830;24.390;2023-04-03T07:06:18;93958.69;;;10.32;59.84
32243;BME280;18731;42.830;24.390;2023-04-03T07:08:45;93953.69;;;10.43;58.95
32243;BME280;18731;42.830;24.390;2023-04-03T07:11:12;93956.50;;;10.62;58.47
32243;BME280;18731;42.830;24.390;2023-04-03T07:13:38;93942.06;;;10.79;58.65
32243;BME280;18731;42.830;24.390;2023-04-03T07:16:06;93939.94;;;11.00;58.08
32243;BME280;18731;42.830;24.390;2023-04-03T07:18:32;93936.41;;;11.12;56.72
32243;BME280;18731;42.830;24.390;2023-04-03T07:20:59;93927.47;;;11.20;56.11
32243;BME280;18731;42.830;24.390;2023-04-03T07:23:24;93932.72;;;11.32;55.77
32243;BME280;18731;42.830;24.390;2023-04-03T07:25:51;93932.63;;;11.44;56.28
32243;BME280;18731;42.830;24.390;2023-04-03T07:28:18;93926.75;;;11.54;56.51
32243;BME280;18731;42.830;24.390;2023-04-03T07:30:50;93926.06;;;11.57;56.48
32243;BME280;18731;42.830;24.390;2023-04-03T07:33:17;93917.94;;;11.70;55.55
32243;BME280;18731;42.830;24.390;2023-04-03T07:35:44;93933.03;;;11.78;54.55
32243;BME280;18731;42.830;24.390;2023-04-03T07:38:10;93935.78;;;11.81;54.57
32243;BME280;18731;42.830;24.390;2023-04-03T07:40:36;93927.75;;;11.81;54.11
32243;BME280;18731;42.830;24.390;2023-04-03T07:43:02;93919.56;;;11.90;54.18
32243;BME280;18731;42.830;24.390;2023-04-03T07:45:28;93931.25;;;12.01;54.49
32243;BME280;18731;42.830;24.390;2023-04-03T07:47:54;93925.56;;;12.03;54.10
32243;BME280;18731;42.830;24.390;2023-04-03T07:50:20;93919.41;;;11.83;54.31
32243;BME280;18731;42.830;24.390;2023-04-03T07:52:47;93928.44;;;11.94;52.69
32243;BME280;18731;42.830;24.390;2023-04-03T07:55:12;93930.41;;;11.97;53.16
32243;BME280;18731;42.830;24.390;2023-04-03T07:57:38;93915.47;;;11.96;54.06
32243;BME280;18731;42.830;24.390;2023-04-03T08:00:05;93915.91;;;12.17;53.42
32243;BME280;18731;42.830;24.390;2023-04-03T08:02:31;93897.91;;;12.34;53.36
32243;BME280;18731;42.830;24.390;2023-04-03T08:05:00;93883.53;;;12.42;53.61
32243;BME280;18731;42.830;24.390;2023-04-03T08:07:26;93884.38;;;12.46;53.05
32243;BME280;18731;42.830;24.390;2023-04-03T08:09:52;93897.13;;;12.52;53.06
32243;BME280;18731;42.830;24.390;2023-04-03T08:12:17;93898.44;;;12.62;51.06
32243;BME280;18731;42.830;24.390;2023-04-03T08:14:43;93855.63;;;12.43;52.09
32243;BME280;18731;42.830;24.390;2023-04-03T08:17:09;93893.88;;;12.85;53.26
32243;BME280;18731;42.830;24.390;2023-04-03T08:19:40;93899.94;;;13.02;51.15
32243;BME280;18731;42.830;24.390;2023-04-03T08:22:06;93889.41;;;13.12;51.76
32243;BME280;18731;42.830;24.390;2023-04-03T08:24:32;93889.72;;;13.30;51.73
32243;BME280;18731;42.830;24.390;2023-04-03T08:26:58;93887.66;;;13.46;51.26
32243;BME280;18731;42.830;24.390;2023-04-03T08:29:24;93880.91;;;13.56;50.33
32243;BME280;18731;42.830;24.390;2023-04-03T08:31:50;93881.91;;;13.71;50.14
32243;BME280;18731;42.830;24.390;2023-04-03T08:34:17;93881.22;;;13.77;49.14
32243;BME280;18731;42.830;24.390;2023-04-03T08:36:43;93859.66;;;13.70;48.63
32243;BME280;18731;42.830;24.390;2023-04-03T08:39:09;93863.63;;;13.80;50.28
32243;BME280;18731;42.830;24.390;2023-04-03T08:41:39;93870.00;;;13.98;50.26
32243;BME280;18731;42.830;24.390;2023-04-03T08:49:45;93862.03;;;14.35;46.75
32243;BME280;18731;42.830;24.390;2023-04-03T08:54:56;93863.38;;;14.52;47.04
32243;BME280;18731;42.830;24.390;2023-04-03T08:57:29;93862.25;;;14.53;48.21
32243;BME280;18731;42.830;24.390;2023-04-03T08:59:58;93864.00;;;14.75;45.98
32243;BME280;18731;42.830;24.390;2023-04-03T09:02:31;93852.94;;;14.80;45.91
32243;BME280;18731;42.830;24.390;2023-04-03T09:04:59;93852.59;;;14.86;45.64
32243;BME280;18731;42.830;24.390;2023-04-03T09:07:36;93844.19;;;14.91;46.04
32243;BME280;18731;42.830;24.390;2023-04-03T09:10:04;93829.63;;;14.92;45.07
32243;BME280;18731;42.830;24.390;2023-04-03T09:12:42;93822.41;;;14.99;44.32
32243;BME280;18731;42.830;24.390;2023-04-03T09:15:23;93825.50;;;15.05;45.92
32243;BME280;18731;42.830;24.390;2023-04-03T09:23:38;93834.44;;;15.16;45.08
32243;BME280;18731;42.830;24.390;2023-04-03T09:26:06;93825.13;;;15.03;44.98
32243;BME280;18731;42.830;24.390;2023-04-03T09:28:38;93824.53;;;14.79;44.40
32243;BME280;18731;42.830;24.390;2023-04-03T09:31:25;93821.09;;;14.83;45.37
32243;BME280;18731;42.830;24.390;2023-04-03T09:33:57;93816.84;;;14.78;44.87
32243;BME280;18731;42.830;24.390;2023-04-03T09:36:47;93818.53;;;14.97;44.10
32243;BME280;18731;42.830;24.390;2023-04-03T09:39:21;93816.25;;;14.99;44.83
32243;BME280;18731;42.830;24.390;2023-04-03T09:42:25;93820.41;;;14.93;44.92
32243;BME280;18731;42.830;24.390;2023-04-03T09:44:55;93815.72;;;14.83;44.56
32243;BME280;18731;42.830;24.390;2023-04-03T09:47:30;93813.50;;;14.92;45.59
32243;BME280;18731;42.830;24.390;2023-04-03T09:52:45;93805.81;;;14.90;45.21
32243;BME280;18731;42.830;24.390;2023-04-03T09:55:19;93793.09;;;14.84;44.56
32243;BME280;18731;42.830;24.390;2023-04-03T09:57:58;93801.94;;;14.88;44.73
32243;BME280;18731;42.830;24.390;2023-04-03T10:00:42;93805.59;;;14.65;45.10
32243;BME280;18731;42.830;24.390;2023-04-03T10:03:28;93803.00;;;14.39;46.29
32243;BME280;18731;42.830;24.390;2023-04-03T10:05:54;93801.16;;;14.43;47.13
32243;BME280;18731;42.830;24.390;2023-04-03T10:08:23;93796.47;;;14.36;47.05
32243;BME280;18731;42.830;24.390;2023-04-03T10:11:10;93794.31;;;14.15;47.65
32243;BME280;18731;42.830;24.390;2023-04-03T10:13:35;93790.41;;;14.09;48.66
32243;BME280;18731;42.830;24.390;2023-04-03T10:16:11;93785.81;;;14.10;49.38
32243;BME280;18731;42.830;24.390;2023-04-03T10:21:44;93780.81;;;14.08;48.86
32243;BME280;18731;42.830;24.390;2023-04-03T10:24:25;93788.72;;;13.94;49.19
32243;BME280;18731;42.830;24.390;2023-04-03T10:27:08;93788.22;;;13.85;49.30
32243;BME280;18731;42.830;24.390;2023-04-03T10:32:21;93776.13;;;13.68;49.40
32243;BME280;18731;42.830;24.390;2023-04-03T10:35:02;93773.84;;;13.70;50.17
32243;BME280;18731;42.830;24.390;2023-04-03T10:38:04;93775.94;;;13.54;50.63
32243;BME280;18731;42.830;24.390;2023-04-03T10:40:33;93775.59;;;13.56;51.01
32243;BME280;18731;42.830;24.390;2023-04-03T10:43:10;93766.38;;;13.53;50.96
32243;BME280;18731;42.830;24.390;2023-04-03T10:48:29;93769.31;;;13.44;51.25
32243;BME280;18731;42.830;24.390;2023-04-03T10:54:04;93764.13;;;13.29;51.57
32243;BME280;18731;42.830;24.390;2023-04-03T11:01:44;93769.31;;;13.18;51.97
32243;BME280;18731;42.830;24.390;2023-04-03T11:04:11;93767.06;;;13.20;51.75
32243;BME280;18731;42.830;24.390;2023-04-03T11:06:51;93751.56;;;13.10;51.84
32243;BME280;18731;42.830;24.390;2023-04-03T11:09:30;93754.97;;;13.07;52.29
32243;BME280;18731;42.830;24.390;2023-04-03T11:12:06;93760.34;;;13.07;52.89
32243;BME280;18731;42.830;24.390;2023-04-03T11:14:38;93753.03;;;13.04;52.51
32243;BME280;18731;42.830;24.390;2023-04-03T11:17:14;93755.38;;;13.09;52.28
32243;BME280;18731;42.830;24.390;2023-04-03T11:22:16;93763.53;;;12.93;53.94
32243;BME280;18731;42.830;24.390;2023-04-03T11:24:54;93741.25;;;12.85;53.40
32243;BME280;18731;42.830;24.390;2023-04-03T11:27:23;93755.38;;;13.09;52.89
32243;BME280;18731;42.830;24.390;2023-04-03T11:29:51;93752.25;;;13.03;53.78
32243;BME280;18731;42.830;24.390;2023-04-03T11:32:56;93752.00;;;12.89;54.69
32243;BME280;18731;42.830;24.390;2023-04-03T11:35:26;93758.09;;;12.86;54.68
32243;BME280;18731;42.830;24.390;2023-04-03T11:37:53;93745.88;;;12.88;54.52
32243;BME280;18731;42.830;24.390;2023-04-03T11:40:24;93753.50;;;12.86;55.14
32243;BME280;18731;42.830;24.390;2023-04-03T11:43:04;93769.63;;;12.90;56.15
32243;BME280;18731;42.830;24.390;2023-04-03T11:45:37;93773.38;;;12.85;55.33
32243;BME280;18731;42.830;24.390;2023-04-03T11:48:41;93777.13;;;12.81;55.75
32243;BME280;18731;42.830;24.390;2023-04-03T11:50:52;93777.91;;;12.81;57.40
32243;BME280;18731;42.830;24.390;2023-04-03T11:53:25;93782.00;;;12.75;58.55
32243;BME280;18731;42.830;24.390;2023-04-03T11:55:53;93787.78;;;12.77;60.56
32243;BME280;18731;42.830;24.390;2023-04-03T11:58:25;93792.66;;;12.72;60.00
32243;BME280;18731;42.830;24.390;2023-04-03T12:00:54;93790.66;;;12.65;64.78
32243;BME280;18731;42.830;24.390;2023-04-03T12:05:50;93777.31;;;12.46;68.76
32243;BME280;18731;42.830;24.390;2023-04-03T12:19:02;93797.25;;;12.06;72.33
32243;BME280;18731;42.830;24.390;2023-04-03T12:22:05;93798.38;;;12.05;72.45
32243;BME280;18731;42.830;24.390;2023-04-03T12:36:06;93781.03;;;11.60;73.09
32243;BME280;18731;42.830;24.390;2023-04-03T12:39:01;93782.94;;;11.60;73.64
32243;BME280;18731;42.830;24.390;2023-04-03T12:46:46;93783.56;;;11.53;72.38
32243;BME280;18731;42.830;24.390;2023-04-03T12:49:33;93782.84;;;11.56;75.40
32243;BME280;18731;42.830;24.390;2023-04-03T12:52:04;93777.44;;;11.53;73.00
32243;BME280;18731;42.830;24.390;2023-04-03T12:54:38;93777.16;;;11.58;73.71
32243;BME280;18731;42.830;24.390;2023-04-03T12:59:40;93768.84;;;11.44;74.93
32243;BME280;18731;42.830;24.390;2023-04-03T13:02:30;93762.31;;;11.41;75.74
32243;BME280;18731;42.830;24.390;2023-04-03T13:04:59;93764.63;;;11.43;77.91
32243;BME280;18731;42.830;24.390;2023-04-03T13:07:33;93761.88;;;11.39;77.07
32243;BME280;18731;42.830;24.390;2023-04-03T13:12:32;93751.47;;;11.34;78.60
32243;BME280;18731;42.830;24.390;2023-04-03T13:15:01;93733.19;;;11.36;78.00
32243;BME280;18731;42.830;24.390;2023-04-03T13:17:28;93721.94;;;11.46;76.73
32243;BME280;18731;42.830;24.390;2023-04-03T13:19:54;93721.88;;;11.43;77.11
32243;BME280;18731;42.830;24.390;2023-04-03T13:22:36;93711.13;;;11.39;77.28
32243;BME280;18731;42.830;24.390;2023-04-03T13:25:11;93705.34;;;11.18;77.66
32243;BME280;18731;42.830;24.390;2023-04-03T13:27:38;93714.06;;;11.34;77.81
32243;BME280;18731;42.830;24.390;2023-04-03T13:30:30;93712.38;;;11.45;78.07
32243;BME280;18731;42.830;24.390;2023-04-03T13:33:01;93703.66;;;11.48;78.65
32243;BME280;18731;42.830;24.390;2023-04-03T13:35:37;93694.53;;;11.49;77.98
32243;BME280;18731;42.830;24.390;2023-04-03T13:38:23;93696.84;;;11.51;76.64
32243;BME280;18731;42.830;24.390;2023-04-03T13:40:54;93699.88;;;11.49;77.18
32243;BME280;18731;42.830;24.390;2023-04-03T13:43:27;93700.72;;;11.53;76.98
32243;BME280;18731;42.830;24.390;2023-04-03T13:46:02;93696.06;;;11.50;76.77
32243;BME280;18731;42.830;24.390;2023-04-03T13:48:39;93698.19;;;11.60;77.54
32243;BME280;18731;42.830;24.390;2023-04-03T13:51:18;93684.69;;;11.53;78.33
32243;BME280;18731;42.830;24.390;2023-04-03T13:53:58;93694.09;;;11.67;79.00
32243;BME280;18731;42.830;24.390;2023-04-03T13:56:33;93691.13;;;11.72;79.04
32243;BME280;18731;42.830;24.390;2023-04-03T14:04:18;93684.13;;;11.64;79.31
32243;BME280;18731;42.830;24.390;2023-04-03T14:06:45;93680.88;;;11.54;79.95
32243;BME280;18731;42.830;24.390;2023-04-03T14:09:12;93674.22;;;11.45;80.76
32243;BME280;18731;42.830;24.390;2023-04-03T14:11:39;93671.88;;;11.43;80.70
32243;BME280;18731;42.830;24.390;2023-04-03T14:14:18;93651.38;;;11.28;80.61
32243;BME280;18731;42.830;24.390;2023-04-03T14:16:51;93680.47;;;11.33;81.37
32243;BME280;18731;42.830;24.390;2023-04-03T14:19:27;93668.66;;;11.15;81.84
32243;BME280;18731;42.830;24.390;2023-04-03T14:21:54;93670.97;;;11.16;82.10
32243;BME280;18731;42.830;24.390;2023-04-03T14:24:21;93663.94;;;11.08;82.86
32243;BME280;18731;42.830;24.390;2023-04-03T14:26:48;93669.06;;;10.98;83.51
32243;BME280;18731;42.830;24.390;2023-04-03T14:29:15;93657.53;;;10.93;83.79
32243;BME280;18731;42.830;24.390;2023-04-03T14:31:43;93654.72;;;10.86;83.97
32243;BME280;18731;42.830;24.390;2023-04-03T14:34:14;93661.47;;;11.00;84.25
32243;BME280;18731;42.830;24.390;2023-04-03T14:36:42;93665.28;;;10.99;84.02
32243;BME280;18731;42.830;24.390;2023-04-03T14:39:11;93661.13;;;11.01;83.90
32243;BME280;18731;42.830;24.390;2023-04-03T14:41:42;93664.22;;;11.03;83.52
32243;BME280;18731;42.830;24.390;2023-04-03T14:44:08;93651.50;;;10.97;83.88
32243;BME280;18731;42.830;24.390;2023-04-03T14:46:39;93657.53;;;10.93;84.11
32243;BME280;18731;42.830;24.390;2023-04-03T14:49:14;93654.66;;;11.02;83.85
32243;BME280;18731;42.830;24.390;2023-04-03T14:51:41;93655.72;;;10.98;84.18
32243;BME280;18731;42.830;24.390;2023-04-03T14:54:17;93661.31;;;10.92;84.36
32243;BME280;18731;42.830;24.390;2023-04-03T14:56:44;93656.00;;;10.92;83.84
32243;BME280;18731;42.830;24.390;2023-04-03T14:59:12;93657.53;;;10.93;83.17
32243;BME280;18731;42.830;24.390;2023-04-03T15:01:39;93655.22;;;10.92;83.51
32243;BME280;18731;42.830;24.390;2023-04-03T15:04:11;93652.19;;;10.93;83.51
32243;BME280;18731;42.830;24.390;2023-04-03T15:06:37;93659.50;;;10.97;82.66
32243;BME280;18731;42.830;24.390;2023-04-03T15:09:03;93663.66;;;10.94;82.64
32243;BME280;18731;42.830;24.390;2023-04-03T15:11:28;93664.97;;;10.84;82.70
32243;BME280;18731;42.830;24.390;2023-04-03T15:13:54;93657.22;;;10.79;82.79
32243;BME280;18731;42.830;24.390;2023-04-03T15:16:21;93656.72;;;10.74;82.78
32243;BME280;18731;42.830;24.390;2023-04-03T15:18:47;93652.28;;;10.62;82.10
32243;BME280;18731;42.830;24.390;2023-04-03T15:21:13;93653.84;;;10.63;82.46
32243;BME280;18731;42.830;24.390;2023-04-03T15:23:39;93648.91;;;10.65;82.71
32243;BME280;18731;42.830;24.390;2023-04-03T15:26:05;93637.81;;;10.63;83.12
32243;BME280;18731;42.830;24.390;2023-04-03T15:28:37;93643.31;;;10.70;82.79
32243;BME280;18731;42.830;24.390;2023-04-03T15:31:05;93644.00;;;10.67;82.82
32243;BME280;18731;42.830;24.390;2023-04-03T15:33:32;93644.00;;;10.67;83.18
32243;BME280;18731;42.830;24.390;2023-04-03T15:35:58;93650.03;;;10.64;83.28
32243;BME280;18731;42.830;24.390;2023-04-03T15:38:24;93639.38;;;10.64;83.05
32243;BME280;18731;42.830;24.390;2023-04-03T15:40:49;93639.22;;;10.57;83.00
32243;BME280;18731;42.830;24.390;2023-04-03T15:43:15;93636.72;;;10.48;82.67
32243;BME280;18731;42.830;24.390;2023-04-03T15:45:42;93643.09;;;10.28;82.46
32243;BME280;18731;42.830;24.390;2023-04-03T15:48:08;93631.50;;;10.20;82.27
32243;BME280;18731;42.830;24.390;2023-04-03T15:50:35;93639.91;;;10.22;82.09
32243;BME280;18731;42.830;24.390;2023-04-03T15:53:01;93643.94;;;10.16;82.86
32243;BME280;18731;42.830;24.390;2023-04-03T15:55:29;93641.09;;;10.09;83.36
32243;BME280;18731;42.830;24.390;2023-04-03T15:57:55;93629.50;;;10.02;83.30
32243;BME280;18731;42.830;24.390;2023-04-03T16:00:22;93635.59;;;10.02;83.78
32243;BME280;18731;42.830;24.390;2023-04-03T16:02:51;93634.13;;;10.05;83.70
32243;BME280;18731;42.830;24.390;2023-04-03T16:05:18;93638.97;;;9.99;83.74
32243;BME280;18731;42.830;24.390;2023-04-03T16:07:45;93634.75;;;9.98;83.86
32243;BME280;18731;42.830;24.390;2023-04-03T16:10:13;93625.47;;;9.92;83.67
32243;BME280;18731;42.830;24.390;2023-04-03T16:12:39;93619.09;;;9.96;83.93
32243;BME280;18731;42.830;24.390;2023-04-03T16:15:06;93600.19;;;9.86;84.40
32243;BME280;18731;42.830;24.390;2023-04-03T16:17:34;93609.91;;;9.94;84.72
32243;BME280;18731;42.830;24.390;2023-04-03T16:20:01;93604.56;;;9.94;84.24
32243;BME280;18731;42.830;24.390;2023-04-03T16:22:28;93600.59;;;9.88;84.23
32243;BME280;18731;42.830;24.390;2023-04-03T16:24:54;93588.50;;;9.75;84.11
32243;BME280;18731;42.830;24.390;2023-04-03T16:27:21;93582.38;;;9.90;84.40
32243;BME280;18731;42.830;24.390;2023-04-03T16:29:47;93583.25;;;9.94;85.03
32243;BME280;18731;42.830;24.390;2023-04-03T16:32:13;93585.47;;;9.92;84.38
32243;BME280;18731;42.830;24.390;2023-04-03T16:34:40;93584.34;;;9.93;84.46
32243;BME280;18731;42.830;24.390;2023-04-03T16:37:06;93572.22;;;9.95;84.83
32243;BME280;18731;42.830;24.390;2023-04-03T16:39:34;93563.72;;;9.90;85.43
32243;BME280;18731;42.830;24.390;2023-04-03T16:42:00;93560.78;;;9.95;85.06
32243;BME280;18731;42.830;24.390;2023-04-03T16:44:26;93563.03;;;9.93;84.66
32243;BME280;18731;42.830;24.390;2023-04-03T16:46:51;93553.22;;;9.97;84.55
32243;BME280;18731;42.830;24.390;2023-04-03T16:49:17;93552.38;;;9.93;84.61
32243;BME280;18731;42.830;24.390;2023-04-03T16:51:43;93540.34;;;9.67;84.67
32243;BME280;18731;42.830;24.390;2023-04-03T16:54:09;93536.66;;;9.72;85.24
32243;BME280;18731;42.830;24.390;2023-04-03T16:56:36;93532.53;;;9.75;85.02
32243;BME280;18731;42.830;24.390;2023-04-03T16:59:02;93534.00;;;9.72;84.57
32243;BME280;18731;42.830;24.390;2023-04-03T17:01:28;93528.16;;;9.66;84.07
32243;BME280;18731;42.830;24.390;2023-04-03T17:03:53;93528.25;;;9.70;84.52
32243;BME280;18731;42.830;24.390;2023-04-03T17:06:20;93526.44;;;9.74;84.23
32243;BME280;18731;42.830;24.390;2023-04-03T17:08:49;93522.31;;;9.77;84.23
32243;BME280;18731;42.830;24.390;2023-04-03T17:11:15;93524.53;;;9.75;83.50
32243;BME280;18731;42.830;24.390;2023-04-03T17:13:41;93515.34;;;9.72;83.79
32243;BME280;18731;42.830;24.390;2023-04-03T17:16:09;93492.31;;;9.64;83.88
32243;BME280;18731;42.830;24.390;2023-04-03T17:18:36;93513.03;;;9.71;83.89
32243;BME280;18731;42.830;24.390;2023-04-03T17:21:03;93517.25;;;9.72;84.09
32243;BME280;18731;42.830;24.390;2023-04-03T17:23:30;93509.75;;;9.61;83.13